Time;durP1;ratioP1;P1;durP2;ratioP2;P2;SDS_P1;SDS_P2;PMS_P1;PMS_P2;Temp;Humidity;BMP_temperature;BMP_pressure;BME280_temperature;BME280_humidity;BME280_pressure;Samples;Min_cycle;Max_cycle;Signal;HPM_P1;HPM_P2
2022/09/02 00:01:26;;;;;;;;;;;13.10;99.90;;;;;;4977529;28;20020;-90
2022/09/02 00:03:54;;;;;;;;;;;13.10;99.90;;;;;;4977589;28;20369;-91
2022/09/02 00:06:19;;;;;;;;;;;13.10;99.90;;;;;;4965172;28;19936;-92
2022/09/02 00:08:45;;;;;;;;;;;13.10;99.90;;;;;;4981037;28;20013;-93
2022/09/02 00:11:14;;;;;;;;;;;13.00;99.90;;;;;;4964161;28;19925;-92
2022/09/02 00:13:40;;;;;;;;;;;12.40;99.90;;;;;;4998025;28;20391;-92
2022/09/02 00:16:06;;;;;;;;;;;13.00;99.90;;;;;;4963560;28;19989;-93
2022/09/02 00:18:32;;;;;;;;;;;12.90;99.90;;;;;;4964908;28;19910;-93
2022/09/02 00:20:57;;;;;;;;;;;12.90;99.90;;;;;;4963972;28;19926;-91
2022/09/02 00:23:23;;;;;;;;;;;12.90;99.90;;;;;;4980672;28;19933;-92
2022/09/02 00:25:49;;;;;;;;;;;12.90;99.90;;;;;;4948033;28;19929;-91
2022/09/02 00:28:14;;;;;;;;;;;12.90;99.90;;;;;;4964896;28;19926;-91
2022/09/02 00:30:40;;;;;;;;;;;13.00;99.90;;;;;;4964609;28;19926;-92
2022/09/02 00:33:06;;;;;;;;;;;12.90;99.90;;;;;;4980587;28;19925;-92
2022/09/02 00:35:31;;;;;;;;;;;12.90;99.90;;;;;;4965187;28;19925;-91
2022/09/02 00:37:57;;;;;;;;;;;12.90;99.90;;;;;;4980206;28;20389;-90
2022/09/02 00:40:23;;;;;;;;;;;12.90;99.90;;;;;;4996456;28;19926;-90
2022/09/02 00:42:49;;;;;;;;;;;12.80;99.90;;;;;;4980489;28;20432;-90
2022/09/02 00:45:14;;;;;;;;;;;12.80;99.90;;;;;;4963160;28;19937;-90
2022/09/02 00:47:40;;;;;;;;;;;12.80;99.90;;;;;;4980379;28;19930;-90
2022/09/02 00:50:07;;;;;;;;;;;12.60;99.90;;;;;;4997245;28;19925;-91
2022/09/02 00:52:34;;;;;;;;;;;12.60;99.90;;;;;;4966076;28;19980;-91
2022/09/02 00:55:06;;;;;;;;;;;12.50;99.90;;;;;;4963397;28;19973;-91
2022/09/02 00:57:33;;;;;;;;;;;12.40;99.90;;;;;;4971906;28;20381;-91
2022/09/02 01:00:16;;;;;;;;;;;12.40;99.90;;;;;;4964736;28;19929;-91
2022/09/02 01:02:42;;;;;;;;;;;12.40;99.90;;;;;;4974936;28;19933;-89
2022/09/02 01:05:09;;;;;;;;;;;12.30;99.90;;;;;;4996592;28;19929;-93
2022/09/02 01:07:37;;;;;;;;;;;12.30;99.90;;;;;;4978796;28;19933;-92
2022/09/02 01:10:04;;;;;;;;;;;12.10;99.90;;;;;;4996348;28;19949;-91
2022/09/02 01:12:30;;;;;;;;;;;12.20;99.90;;;;;;4963046;28;20286;-91
2022/09/02 01:14:56;;;;;;;;;;;12.20;99.90;;;;;;4962767;28;19961;-92
2022/09/02 01:17:24;;;;;;;;;;;12.20;99.90;;;;;;4946426;28;20012;-91
2022/09/02 01:19:50;;;;;;;;;;;12.20;99.90;;;;;;4996613;28;19936;-92
2022/09/02 01:22:16;;;;;;;;;;;12.20;99.90;;;;;;4946477;28;20016;-90
2022/09/02 01:24:42;;;;;;;;;;;12.20;99.90;;;;;;4978567;28;19932;-92
2022/09/02 01:27:08;;;;;;;;;;;12.20;99.90;;;;;;4962096;28;19926;-91
2022/09/02 01:29:33;;;;;;;;;;;12.20;99.90;;;;;;4963023;28;19910;-91
2022/09/02 01:31:59;;;;;;;;;;;12.20;99.90;;;;;;4977853;28;19930;-91
2022/09/02 01:34:24;;;;;;;;;;;12.20;99.90;;;;;;4979637;28;19926;-90
2022/09/02 01:36:50;;;;;;;;;;;12.20;99.90;;;;;;4961733;28;19933;-91
2022/09/02 01:39:16;;;;;;;;;;;12.30;99.90;;;;;;4978040;28;19984;-92
2022/09/02 01:41:41;;;;;;;;;;;12.50;99.90;;;;;;4962513;28;20271;-90
2022/09/02 01:44:07;;;;;;;;;;;12.30;99.90;;;;;;4962716;28;19988;-91
2022/09/02 01:46:32;;;;;;;;;;;12.30;99.90;;;;;;4963147;28;19932;-91
2022/09/02 01:48:58;;;;;;;;;;;12.30;99.90;;;;;;4979463;28;19933;-93
2022/09/02 01:51:24;;;;;;;;;;;12.20;99.90;;;;;;4957294;28;19910;-90
2022/09/02 01:53:49;;;;;;;;;;;12.20;99.90;;;;;;4985015;28;19936;-92
2022/09/02 01:56:15;;;;;;;;;;;12.20;99.90;;;;;;4993163;28;19926;-92
2022/09/02 01:58:40;;;;;;;;;;;12.20;99.90;;;;;;4975925;28;19916;-90
2022/09/02 02:01:06;;;;;;;;;;;12.20;99.90;;;;;;4968528;28;20396;-89
2022/09/02 02:03:32;;;;;;;;;;;12.20;99.90;;;;;;4980498;28;19929;-90
2022/09/02 02:05:58;;;;;;;;;;;12.20;99.90;;;;;;4980474;28;20282;-90
2022/09/02 02:08:24;;;;;;;;;;;12.20;99.90;;;;;;4979893;28;20031;-91
2022/09/02 02:10:49;;;;;;;;;;;12.20;99.90;;;;;;4978481;28;19934;-92
2022/09/02 02:13:15;;;;;;;;;;;12.10;99.90;;;;;;4961444;28;19933;-89
2022/09/02 02:15:40;;;;;;;;;;;12.10;99.90;;;;;;4962992;28;19940;-92
2022/09/02 02:18:06;;;;;;;;;;;12.10;99.90;;;;;;4995845;28;19933;-89
2022/09/02 02:20:32;;;;;;;;;;;12.20;99.90;;;;;;4978653;28;20087;-91
2022/09/02 02:22:57;;;;;;;;;;;12.20;99.90;;;;;;4961320;28;19932;-91
2022/09/02 02:25:23;;;;;;;;;;;12.10;99.90;;;;;;4962120;28;19930;-91
2022/09/02 02:27:50;;;;;;;;;;;12.20;99.90;;;;;;4962174;28;20291;-92
2022/09/02 02:30:15;;;;;;;;;;;12.20;99.90;;;;;;4978970;28;19926;-91
2022/09/02 02:32:41;;;;;;;;;;;12.10;99.90;;;;;;4962290;28;19933;-91
2022/09/02 02:35:08;;;;;;;;;;;12.10;99.90;;;;;;4961464;28;20401;-91
2022/09/02 02:37:33;;;;;;;;;;;12.10;99.90;;;;;;4978219;28;20406;-92
2022/09/02 02:39:59;;;;;;;;;;;12.00;99.90;;;;;;4945995;28;19979;-92
2022/09/02 02:42:24;;;;;;;;;;;12.00;99.90;;;;;;4961111;28;19925;-91
2022/09/02 02:44:50;;;;;;;;;;;12.00;99.90;;;;;;4950552;28;19930;-91
2022/09/02 02:47:16;;;;;;;;;;;11.90;99.90;;;;;;4999768;28;19926;-90
2022/09/02 02:49:41;;;;;;;;;;;11.90;99.90;;;;;;4982338;28;19926;-92
2022/09/02 02:52:07;;;;;;;;;;;12.00;99.90;;;;;;4962722;28;19925;-91
2022/09/02 02:54:33;;;;;;;;;;;12.00;99.90;;;;;;4961286;28;19926;-93
2022/09/02 02:56:58;;;;;;;;;;;11.90;99.90;;;;;;4962417;28;19929;-92
2022/09/02 02:59:25;;;;;;;;;;;11.90;99.90;;;;;;4965346;28;19948;-91
2022/09/02 03:01:50;;;;;;;;;;;11.90;99.90;;;;;;4969391;28;20297;-92
2022/09/02 03:04:16;;;;;;;;;;;11.80;99.90;;;;;;4949032;28;19965;-92
2022/09/02 03:06:41;;;;;;;;;;;11.90;99.90;;;;;;4995490;28;19934;-90
2022/09/02 03:09:07;;;;;;;;;;;11.90;99.90;;;;;;4977951;28;19933;-91
2022/09/02 03:11:32;;;;;;;;;;;11.80;99.90;;;;;;5004636;28;19909;-90
2022/09/02 03:13:58;;;;;;;;;;;11.60;99.90;;;;;;4996260;28;19926;-92
2022/09/02 03:16:23;;;;;;;;;;;11.70;99.90;;;;;;4979035;28;19925;-93
2022/09/02 03:18:49;;;;;;;;;;;11.70;99.90;;;;;;4964090;28;19930;-93
2022/09/02 03:21:15;;;;;;;;;;;11.70;99.90;;;;;;4978450;28;19936;-92
2022/09/02 03:23:41;;;;;;;;;;;11.60;99.90;;;;;;4946851;28;19952;-91
2022/09/02 03:26:17;;;;;;;;;;;11.60;99.90;;;;;;4979253;28;19945;-92
2022/09/02 03:28:43;;;;;;;;;;;11.60;99.90;;;;;;4978308;28;19926;-92
2022/09/02 03:31:12;;;;;;;;;;;11.50;99.90;;;;;;4946997;28;20016;-93
2022/09/02 03:33:37;;;;;;;;;;;11.40;99.90;;;;;;4962036;28;19925;-92
2022/09/02 03:36:03;;;;;;;;;;;11.40;99.90;;;;;;4977628;28;19956;-93
2022/09/02 03:38:28;;;;;;;;;;;11.40;99.90;;;;;;4977414;28;19949;-92
2022/09/02 03:40:54;;;;;;;;;;;11.40;99.90;;;;;;4980964;28;19925;-92
2022/09/02 03:43:19;;;;;;;;;;;11.20;99.90;;;;;;4999236;28;19953;-92
2022/09/02 03:45:45;;;;;;;;;;;11.30;99.90;;;;;;4998583;28;20012;-92
2022/09/02 03:48:11;;;;;;;;;;;11.20;99.90;;;;;;4981495;28;19937;-92
2022/09/02 03:50:38;;;;;;;;;;;11.30;99.90;;;;;;4949432;28;19953;-91
2022/09/02 03:53:04;;;;;;;;;;;11.20;99.90;;;;;;4981980;28;19933;-92
2022/09/02 03:55:30;;;;;;;;;;;11.20;99.90;;;;;;4980976;28;19930;-93
2022/09/02 03:57:55;;;;;;;;;;;11.10;99.90;;;;;;4965769;28;19933;-90
2022/09/02 04:00:23;;;;;;;;;;;11.10;99.90;;;;;;4998723;28;20491;-90
2022/09/02 04:02:49;;;;;;;;;;;11.10;99.90;;;;;;4989464;28;20351;-92
2022/09/02 04:05:14;;;;;;;;;;;11.00;99.90;;;;;;4981564;28;19929;-92
2022/09/02 04:07:40;;;;;;;;;;;11.00;99.90;;;;;;4980998;28;20293;-91
2022/09/02 04:10:07;;;;;;;;;;;11.10;99.90;;;;;;4980357;28;19976;-93
2022/09/02 04:12:33;;;;;;;;;;;11.10;99.90;;;;;;4963866;28;19952;-92
2022/09/02 04:14:58;;;;;;;;;;;11.10;99.90;;;;;;4963550;28;20362;-94
2022/09/02 04:17:24;;;;;;;;;;;11.00;99.90;;;;;;4980638;28;19930;-93
2022/09/02 04:19:50;;;;;;;;;;;11.00;99.90;;;;;;4983554;28;20505;-91
2022/09/02 04:22:15;;;;;;;;;;;10.90;99.90;;;;;;4965064;28;19926;-91
2022/09/02 04:24:41;;;;;;;;;;;10.90;99.90;;;;;;4980481;28;20382;-90
2022/09/02 04:27:06;;;;;;;;;;;10.90;99.90;;;;;;4982247;28;20298;-91
2022/09/02 04:29:32;;;;;;;;;;;11.00;99.90;;;;;;4984049;28;20075;-92
2022/09/02 04:31:57;;;;;;;;;;;11.50;99.90;;;;;;4982441;28;19934;-92
2022/09/02 04:34:25;;;;;;;;;;;11.00;99.90;;;;;;4982436;28;19926;-89
2022/09/02 04:36:51;;;;;;;;;;;10.90;99.90;;;;;;4984704;28;19933;-90
2022/09/02 04:39:17;;;;;;;;;;;10.90;99.90;;;;;;4971493;28;19933;-90
2022/09/02 04:41:44;;;;;;;;;;;10.80;99.90;;;;;;4988389;28;20020;-91
2022/09/02 04:44:09;;;;;;;;;;;10.80;99.90;;;;;;4991875;28;19997;-90
2022/09/02 04:46:35;;;;;;;;;;;10.80;99.90;;;;;;4968324;28;19976;-91
2022/09/02 04:49:01;;;;;;;;;;;10.90;99.90;;;;;;4984104;28;20382;-92
2022/09/02 04:51:27;;;;;;;;;;;10.90;99.90;;;;;;4981926;28;19977;-94
2022/09/02 04:53:52;;;;;;;;;;;10.90;99.90;;;;;;4999877;28;20023;-91
2022/09/02 04:56:20;;;;;;;;;;;10.90;99.90;;;;;;5001612;28;19926;-91
2022/09/02 04:58:45;;;;;;;;;;;10.90;99.90;;;;;;4968286;28;19987;-92
2022/09/02 05:01:15;;;;;;;;;;;11.00;99.90;;;;;;4991910;28;19926;-92
2022/09/02 05:03:41;;;;;;;;;;;10.90;99.90;;;;;;4975226;28;19979;-90
2022/09/02 05:06:07;;;;;;;;;;;10.80;99.90;;;;;;4988228;28;20016;-91
2022/09/02 05:08:35;;;;;;;;;;;11.00;99.90;;;;;;4984694;28;19965;-92
2022/09/02 05:11:04;;;;;;;;;;;11.00;99.90;;;;;;4984779;28;20397;-92
2022/09/02 05:13:30;;;;;;;;;;;11.00;99.90;;;;;;4967390;28;19973;-92
2022/09/02 05:15:55;;;;;;;;;;;11.00;99.90;;;;;;4998280;28;19929;-91
2022/09/02 05:18:27;;;;;;;;;;;11.10;99.90;;;;;;4966283;28;20285;-89
2022/09/02 05:20:53;;;;;;;;;;;11.10;99.90;;;;;;4985260;28;19914;-90
2022/09/02 05:23:18;;;;;;;;;;;11.20;99.90;;;;;;4988403;28;19969;-92
2022/09/02 05:25:44;;;;;;;;;;;11.20;99.90;;;;;;4982666;28;19989;-91
2022/09/02 05:28:09;;;;;;;;;;;11.20;99.90;;;;;;5000744;28;19929;-93
2022/09/02 05:30:39;;;;;;;;;;;11.30;99.90;;;;;;4999477;28;19930;-93
2022/09/02 05:33:04;;;;;;;;;;;12.70;99.90;;;;;;4971040;28;19941;-92
2022/09/02 05:35:30;;;;;;;;;;;11.60;99.90;;;;;;4970716;28;19934;-90
2022/09/02 05:37:55;;;;;;;;;;;11.50;99.90;;;;;;4969658;28;19933;-90
2022/09/02 05:40:21;;;;;;;;;;;11.90;99.90;;;;;;4983466;28;20396;-92
2022/09/02 05:42:47;;;;;;;;;;;12.50;99.90;;;;;;4965328;28;20056;-93
2022/09/02 05:45:13;;;;;;;;;;;13.50;99.90;;;;;;4963037;28;19941;-93
2022/09/02 05:47:38;;;;;;;;;;;14.20;99.90;;;;;;4978158;28;19926;-87
2022/09/02 05:50:04;;;;;;;;;;;14.80;99.90;;;;;;4977474;28;19933;-93
2022/09/02 05:52:30;;;;;;;;;;;15.40;99.90;;;;;;4962836;28;20024;-92
2022/09/02 05:54:55;;;;;;;;;;;15.80;99.90;;;;;;4994611;28;19949;-93
2022/09/02 05:57:21;;;;;;;;;;;16.00;99.90;;;;;;4961635;28;20350;-92
2022/09/02 05:59:48;;;;;;;;;;;16.70;99.90;;;;;;4977508;28;19930;-92
2022/09/02 06:02:15;;;;;;;;;;;17.00;99.90;;;;;;4976643;28;19932;-94
2022/09/02 06:04:41;;;;;;;;;;;16.60;99.90;;;;;;4971599;28;19976;-94
2022/09/02 06:07:07;;;;;;;;;;;16.90;99.90;;;;;;4961913;28;20432;-93
2022/09/02 06:09:32;;;;;;;;;;;17.10;99.90;;;;;;4961166;28;19929;-92
2022/09/02 06:11:58;;;;;;;;;;;17.50;99.90;;;;;;4977391;28;19933;-92
2022/09/02 06:14:24;;;;;;;;;;;17.40;99.90;;;;;;4976949;28;19993;-92
2022/09/02 06:16:49;;;;;;;;;;;18.20;99.90;;;;;;4977045;28;19930;-92
2022/09/02 06:19:15;;;;;;;;;;;18.20;99.90;;;;;;4977000;28;19976;-93
2022/09/02 06:21:41;;;;;;;;;;;18.80;99.90;;;;;;4959469;28;19933;-92
2022/09/02 06:24:07;;;;;;;;;;;19.00;99.90;;;;;;4960900;28;19932;-94
2022/09/02 06:26:33;;;;;;;;;;;18.90;99.90;;;;;;4960996;28;19929;-92
2022/09/02 06:28:58;;;;;;;;;;;19.80;99.90;;;;;;4975814;28;20032;-94
2022/09/02 06:31:24;;;;;;;;;;;19.80;99.90;;;;;;4975934;28;20464;-91
2022/09/02 06:33:50;;;;;;;;;;;20.10;99.90;;;;;;4975410;28;19936;-91
2022/09/02 06:36:16;;;;;;;;;;;20.30;99.90;;;;;;4975743;28;19925;-92
2022/09/02 06:38:42;;;;;;;;;;;20.40;99.90;;;;;;4959045;28;19980;-90
2022/09/02 06:41:12;;;;;;;;;;;20.20;99.90;;;;;;4992980;28;20294;-93
2022/09/02 06:43:37;;;;;;;;;;;20.00;99.90;;;;;;4976340;28;19926;-91
2022/09/02 06:46:03;;;;;;;;;;;20.40;99.90;;;;;;4975453;28;20024;-92
2022/09/02 06:48:29;;;;;;;;;;;20.30;99.90;;;;;;4975907;28;20429;-93
2022/09/02 06:50:54;;;;;;;;;;;20.50;99.90;;;;;;4996240;28;19958;-83
2022/09/02 06:53:20;;;;;;;;;;;20.80;99.90;;;;;;4958855;28;19980;-83
2022/09/02 06:55:46;;;;;;;;;;;20.70;99.90;;;;;;4974515;28;20276;-82
2022/09/02 06:58:12;;;;;;;;;;;20.00;99.90;;;;;;4991732;28;20017;-82
2022/09/02 07:00:37;;;;;;;;;;;20.20;99.90;;;;;;4958412;28;19926;-82
2022/09/02 07:05:57;;;;;;;;;;;20.10;99.90;;;;;;4974292;28;19926;-84
2022/09/02 07:08:22;;;;;;;;;;;20.50;99.90;;;;;;4991886;28;20005;-83
2022/09/02 07:10:48;;;;;;;;;;;21.30;99.90;;;;;;4990975;28;20461;-83
2022/09/02 07:13:14;;;;;;;;;;;21.00;99.80;;;;;;4993187;28;19930;-81
2022/09/02 07:15:39;;;;;;;;;;;21.10;99.90;;;;;;4995759;28;19979;-81
2022/09/02 07:18:05;;;;;;;;;;;21.10;99.90;;;;;;4977873;28;19926;-81
2022/09/02 07:20:30;;;;;;;;;;;21.30;99.90;;;;;;4995520;28;19985;-81
2022/09/02 07:22:56;;;;;;;;;;;21.90;99.00;;;;;;4995087;28;19925;-80
2022/09/02 07:25:22;;;;;;;;;;;21.70;99.40;;;;;;4995613;28;19925;-80
2022/09/02 07:27:50;;;;;;;;;;;21.70;99.50;;;;;;4995162;28;19926;-81
2022/09/02 07:30:15;;;;;;;;;;;21.30;99.90;;;;;;4995609;28;19929;-80
2022/09/02 07:32:41;;;;;;;;;;;21.70;99.30;;;;;;4995477;28;19926;-83
2022/09/02 07:35:06;;;;;;;;;;;21.20;99.90;;;;;;4977415;28;19926;-82
2022/09/02 07:37:33;;;;;;;;;;;21.50;99.60;;;;;;4978017;28;19932;-81
2022/09/02 07:40:00;;;;;;;;;;;20.90;99.90;;;;;;4995274;28;20445;-81
2022/09/02 07:42:26;;;;;;;;;;;21.50;99.60;;;;;;4977997;28;19925;-81
2022/09/02 07:44:52;;;;;;;;;;;21.20;99.90;;;;;;4994708;28;19933;-83
2022/09/02 07:47:17;;;;;;;;;;;21.60;99.20;;;;;;4995277;28;19926;-82
2022/09/02 07:49:43;;;;;;;;;;;22.20;98.60;;;;;;4961582;28;19926;-80
2022/09/02 07:52:08;;;;;;;;;;;21.80;99.20;;;;;;4977117;28;19926;-82
2022/09/02 07:54:34;;;;;;;;;;;22.50;98.50;;;;;;4995072;28;20255;-81
2022/09/02 07:56:59;;;;;;;;;;;22.90;98.20;;;;;;4994671;28;20056;-82
2022/09/02 07:59:25;;;;;;;;;;;23.50;97.70;;;;;;4994954;28;19930;-81
2022/09/02 08:01:51;;;;;;;;;;;23.40;97.60;;;;;;4994359;28;20390;-82
2022/09/02 08:04:17;;;;;;;;;;;23.70;97.70;;;;;;4994431;28;19926;-80
2022/09/02 08:06:43;;;;;;;;;;;23.40;97.10;;;;;;4994766;28;19933;-80
2022/09/02 08:09:11;;;;;;;;;;;23.90;97.00;;;;;;4994458;28;19930;-81
2022/09/02 08:11:41;;;;;;;;;;;24.10;96.20;;;;;;4977648;28;20013;-80
2022/09/02 08:14:07;;;;;;;;;;;24.40;96.40;;;;;;4960715;28;20336;-83
2022/09/02 08:16:33;;;;;;;;;;;23.80;96.50;;;;;;4977297;28;19930;-83
2022/09/02 08:18:58;;;;;;;;;;;24.40;96.50;;;;;;4994407;28;19949;-83
2022/09/02 08:21:27;;;;;;;;;;;24.10;95.90;;;;;;4994463;28;19972;-83
2022/09/02 08:23:52;;;;;;;;;;;24.30;95.80;;;;;;4961078;28;20025;-83
2022/09/02 08:26:18;;;;;;;;;;;24.30;96.00;;;;;;4976612;28;20064;-83
2022/09/02 08:28:44;;;;;;;;;;;24.70;96.10;;;;;;4992416;28;19995;-83
2022/09/02 08:31:10;;;;;;;;;;;24.60;96.10;;;;;;4994068;28;20417;-84
2022/09/02 08:33:35;;;;;;;;;;;24.70;95.60;;;;;;4976473;28;19926;-83
2022/09/02 08:36:04;;;;;;;;;;;25.40;95.80;;;;;;4993689;28;19926;-84
2022/09/02 08:38:30;;;;;;;;;;;25.80;94.80;;;;;;4994899;28;19953;-84
2022/09/02 08:40:55;;;;;;;;;;;26.00;93.90;;;;;;4994196;28;19926;-87
2022/09/02 08:43:37;;;;;;;;;;;26.10;93.50;;;;;;4994532;28;19977;-83
2022/09/02 08:46:03;;;;;;;;;;;25.30;94.10;;;;;;4961213;28;19976;-84
2022/09/02 08:48:29;;;;;;;;;;;25.60;94.00;;;;;;4994495;28;19926;-84
2022/09/02 08:50:57;;;;;;;;;;;25.80;93.80;;;;;;4993887;28;19926;-82
2022/09/02 08:53:25;;;;;;;;;;;25.70;93.90;;;;;;4994366;28;19965;-83
2022/09/02 08:55:55;;;;;;;;;;;25.80;93.90;;;;;;4994163;28;19930;-83
2022/09/02 08:58:21;;;;;;;;;;;25.80;93.60;;;;;;4977454;28;19953;-84
2022/09/02 09:00:56;;;;;;;;;;;26.00;93.90;;;;;;4976848;28;19997;-83
2022/09/02 09:03:51;;;;;;;;;;;25.20;94.00;;;;;;4993863;28;19973;-83
2022/09/02 09:06:19;;;;;;;;;;;24.80;94.00;;;;;;4923501;28;20016;-84
2022/09/02 09:08:47;;;;;;;;;;;25.10;94.10;;;;;;4960643;28;19925;-83
2022/09/02 09:11:12;;;;;;;;;;;25.40;94.30;;;;;;4960265;28;19926;-85
2022/09/02 09:13:50;;;;;;;;;;;25.80;93.70;;;;;;4960624;28;19988;-84
2022/09/02 09:16:34;;;;;;;;;;;25.20;93.70;;;;;;4976372;28;19926;-83
2022/09/02 09:19:02;;;;;;;;;;;25.30;94.10;;;;;;4960402;28;20562;-85
2022/09/02 09:21:29;;;;;;;;;;;25.80;94.00;;;;;;4976193;28;20289;-85
2022/09/02 09:23:55;;;;;;;;;;;25.80;93.50;;;;;;4993663;28;19972;-85
2022/09/02 09:26:26;;;;;;;;;;;25.30;93.80;;;;;;4975799;28;19926;-84
2022/09/02 09:28:54;;;;;;;;;;;25.10;93.80;;;;;;4983247;28;19913;-84
2022/09/02 09:31:20;;;;;;;;;;;25.40;93.90;;;;;;4993892;28;19968;-83
2022/09/02 09:34:04;;;;;;;;;;;25.80;93.60;;;;;;4993337;28;19929;-85
2022/09/02 09:36:47;;;;;;;;;;;26.10;93.60;;;;;;4956276;28;19937;-84
2022/09/02 09:39:25;;;;;;;;;;;26.30;93.60;;;;;;4972904;28;19933;-85
2022/09/02 09:41:52;;;;;;;;;;;26.50;93.40;;;;;;4973410;28;19926;-84
2022/09/02 09:44:56;;;;;;;;;;;26.40;93.40;;;;;;4972983;28;20028;-85
2022/09/02 09:47:24;;;;;;;;;;;26.40;93.00;;;;;;4913267;29;20342;-85
2022/09/02 09:49:53;;;;;;;;;;;26.80;93.00;;;;;;4882356;29;20983;-84
2022/09/02 09:52:26;;;;;;;;;;;26.40;93.10;;;;;;4926388;28;20017;-85
2022/09/02 09:55:05;;;;;;;;;;;26.30;92.90;;;;;;4973277;28;19933;-84
2022/09/02 09:57:30;;;;;;;;;;;26.40;93.00;;;;;;4955972;28;19961;-83
2022/09/02 10:00:00;;;;;;;;;;;26.60;93.20;;;;;;4972810;28;20290;-84
2022/09/02 10:02:26;;;;;;;;;;;26.80;92.00;;;;;;4972709;28;20558;-84
2022/09/02 10:04:52;;;;;;;;;;;26.70;92.00;;;;;;4973272;28;19926;-84
2022/09/02 10:07:34;;;;;;;;;;;26.80;91.60;;;;;;4955648;28;19949;-85
2022/09/02 10:10:16;;;;;;;;;;;27.20;91.30;;;;;;4940378;28;19926;-84
2022/09/02 10:12:42;;;;;;;;;;;27.60;91.10;;;;;;4955104;28;19927;-84
2022/09/02 10:15:08;;;;;;;;;;;28.30;90.50;;;;;;4955231;28;19926;-85
2022/09/02 10:17:46;;;;;;;;;;;28.70;90.20;;;;;;4972890;28;19926;-85
2022/09/02 10:20:15;;;;;;;;;;;27.70;90.10;;;;;;4955031;28;19930;-84
2022/09/02 10:22:40;;;;;;;;;;;27.90;89.80;;;;;;4972995;28;19929;-84
2022/09/02 10:25:25;;;;;;;;;;;27.00;90.00;;;;;;4955480;28;19937;-84
2022/09/02 10:27:51;;;;;;;;;;;26.80;90.10;;;;;;4972235;28;19930;-83
2022/09/02 10:30:20;;;;;;;;;;;26.80;90.50;;;;;;4971330;28;19934;-84
2022/09/02 10:32:45;;;;;;;;;;;26.80;90.70;;;;;;4939400;28;19933;-82
2022/09/02 10:35:17;;;;;;;;;;;26.20;90.60;;;;;;4971807;28;19926;-84
2022/09/02 10:38:01;;;;;;;;;;;26.20;90.60;;;;;;4955281;28;19939;-83
2022/09/02 10:40:34;;;;;;;;;;;26.50;91.00;;;;;;4971869;28;19930;-84
2022/09/02 10:43:01;;;;;;;;;;;26.60;90.70;;;;;;4955273;28;19926;-82
2022/09/02 10:45:30;;;;;;;;;;;26.90;90.10;;;;;;4954627;28;19981;-81
2022/09/02 10:48:05;;;;;;;;;;;27.00;90.40;;;;;;4972094;28;19926;-81
2022/09/02 10:50:36;;;;;;;;;;;26.30;90.00;;;;;;4955292;28;19938;-82
2022/09/02 10:53:11;;;;;;;;;;;26.40;89.90;;;;;;4972674;28;20389;-82
2022/09/02 10:55:41;;;;;;;;;;;26.40;89.70;;;;;;4972110;28;19932;-83
2022/09/02 10:58:18;;;;;;;;;;;26.50;89.00;;;;;;4955378;28;19932;-83
2022/09/02 11:00:44;;;;;;;;;;;26.30;90.00;;;;;;4972375;28;19926;-83
2022/09/02 11:03:11;;;;;;;;;;;26.90;89.50;;;;;;4972482;28;19944;-82
2022/09/02 11:05:48;;;;;;;;;;;27.10;87.80;;;;;;4972783;28;19925;-82
2022/09/02 11:08:17;;;;;;;;;;;27.00;87.10;;;;;;4973678;28;19926;-84
2022/09/02 11:10:45;;;;;;;;;;;26.90;88.60;;;;;;4991505;28;19969;-83
2022/09/02 11:13:18;;;;;;;;;;;26.50;87.80;;;;;;4975972;28;19933;-89
2022/09/02 11:15:44;;;;;;;;;;;25.80;88.20;;;;;;4943062;28;19939;-90
2022/09/02 11:18:32;;;;;;;;;;;25.40;89.00;;;;;;4976077;28;20002;-93
2022/09/02 11:21:00;;;;;;;;;;;25.20;89.80;;;;;;4959755;28;19925;-92
2022/09/02 11:23:34;;;;;;;;;;;25.00;90.90;;;;;;4958722;28;20262;-91
2022/09/02 11:26:03;;;;;;;;;;;24.90;90.00;;;;;;4959927;28;19937;-92
2022/09/02 11:28:34;;;;;;;;;;;25.00;89.40;;;;;;4940507;28;19937;-93
2022/09/02 11:31:10;;;;;;;;;;;24.90;90.00;;;;;;4958654;28;19930;-93
2022/09/02 11:33:50;;;;;;;;;;;24.60;88.30;;;;;;4973366;28;19930;-91
2022/09/02 11:36:16;;;;;;;;;;;25.00;89.60;;;;;;4954134;28;19926;-93
2022/09/02 11:38:48;;;;;;;;;;;25.50;90.40;;;;;;4970227;28;20010;-93
2022/09/02 11:41:40;;;;;;;;;;;24.50;90.20;;;;;;4955199;28;20017;-87
2022/09/02 11:44:13;;;;;;;;;;;24.70;89.40;;;;;;4939849;29;19927;-90
2022/09/02 11:46:51;;;;;;;;;;;23.20;87.80;;;;;;4918781;29;19927;-91
2022/09/02 11:49:28;;;;;;;;;;;24.80;89.30;;;;;;4918376;29;19933;-90
2022/09/02 11:52:05;;;;;;;;;;;24.90;90.10;;;;;;4936517;28;19926;-90
2022/09/02 11:54:38;;;;;;;;;;;24.00;89.10;;;;;;4969236;28;19926;-91
2022/09/02 11:57:07;;;;;;;;;;;24.80;89.60;;;;;;4939438;29;19926;-88
2022/09/02 11:59:51;;;;;;;;;;;24.90;90.60;;;;;;4967420;28;20009;-89
2022/09/02 12:02:35;;;;;;;;;;;25.10;90.20;;;;;;4939055;29;19997;-87
2022/09/02 12:05:20;;;;;;;;;;;23.60;88.40;;;;;;4933197;28;19949;-91
2022/09/02 12:07:48;;;;;;;;;;;25.10;88.90;;;;;;4977920;28;19930;-95
2022/09/02 12:10:33;;;;;;;;;;;25.00;89.50;;;;;;4944115;29;19954;-93
2022/09/02 12:12:59;;;;;;;;;;;25.30;89.80;;;;;;4981943;28;19930;-90
2022/09/02 12:15:25;;;;;;;;;;;25.20;89.70;;;;;;4961368;28;19930;-92
2022/09/02 12:17:50;;;;;;;;;;;25.40;89.40;;;;;;4960507;28;19941;-93
2022/09/02 12:20:37;;;;;;;;;;;25.50;88.90;;;;;;4958435;28;19933;-90
2022/09/02 12:23:05;;;;;;;;;;;25.20;88.90;;;;;;4974993;28;20508;-90
2022/09/02 12:25:34;;;;;;;;;;;25.20;88.80;;;;;;4974893;28;20267;-89
2022/09/02 12:28:13;;;;;;;;;;;25.20;90.10;;;;;;4960409;28;19933;-93
2022/09/02 12:30:54;;;;;;;;;;;25.40;89.00;;;;;;4958884;28;20404;-91
2022/09/02 12:33:33;;;;;;;;;;;25.20;88.80;;;;;;4960090;28;19934;-92
2022/09/02 12:36:03;;;;;;;;;;;25.00;88.90;;;;;;4945746;28;19927;-95
2022/09/02 12:38:34;;;;;;;;;;;25.30;89.90;;;;;;4968705;28;19937;-94
2022/09/02 12:41:05;;;;;;;;;;;25.20;90.10;;;;;;4963907;28;19988;-92
2022/09/02 12:43:34;;;;;;;;;;;25.50;87.60;;;;;;4963135;28;19926;-92
2022/09/02 12:46:03;;;;;;;;;;;25.50;89.30;;;;;;4959754;28;19965;-92
2022/09/02 12:48:35;;;;;;;;;;;24.80;88.60;;;;;;4960097;28;19926;-93
2022/09/02 12:51:01;;;;;;;;;;;25.20;88.80;;;;;;4961613;28;19930;-94
2022/09/02 12:53:28;;;;;;;;;;;25.40;89.00;;;;;;4963675;28;19986;-90
2022/09/02 12:55:55;;;;;;;;;;;25.00;88.40;;;;;;4984605;28;19927;-94
2022/09/02 12:58:21;;;;;;;;;;;25.60;88.10;;;;;;4950065;28;19930;-93
2022/09/02 13:00:59;;;;;;;;;;;25.30;89.20;;;;;;4964413;28;20136;-93
2022/09/02 13:03:28;;;;;;;;;;;25.20;88.10;;;;;;4964193;28;20441;-92
2022/09/02 13:06:03;;;;;;;;;;;24.50;86.80;;;;;;4980861;28;19932;-93
2022/09/02 13:08:28;;;;;;;;;;;25.00;87.40;;;;;;4975991;28;19961;-92
2022/09/02 13:10:56;;;;;;;;;;;25.00;89.90;;;;;;4959442;28;19926;-94
2022/09/02 13:13:36;;;;;;;;;;;25.20;89.30;;;;;;4971678;28;19926;-96
2022/09/02 13:16:31;;;;;;;;;;;24.50;88.50;;;;;;4950974;28;19937;-93
2022/09/02 13:19:18;;;;;;;;;;;25.10;87.40;;;;;;4949509;28;20045;-93
2022/09/02 13:21:44;;;;;;;;;;;24.50;87.00;;;;;;4978421;28;19965;-92
2022/09/02 13:24:12;;;;;;;;;;;25.30;89.20;;;;;;4961290;28;19964;-94
2022/09/02 13:26:44;;;;;;;;;;;25.70;87.90;;;;;;4975611;28;19930;-93
2022/09/02 13:29:13;;;;;;;;;;;25.20;87.70;;;;;;4960094;28;19954;-95
2022/09/02 13:31:39;;;;;;;;;;;25.60;88.80;;;;;;4975507;28;19965;-94
2022/09/02 13:34:05;;;;;;;;;;;25.40;89.60;;;;;;4960044;28;19926;-95
2022/09/02 13:36:33;;;;;;;;;;;25.40;87.90;;;;;;4943785;28;20099;-94
2022/09/02 13:39:20;;;;;;;;;;;25.20;87.70;;;;;;4945097;28;20002;-93
2022/09/02 13:41:49;;;;;;;;;;;25.70;87.30;;;;;;4960537;28;19957;-96
2022/09/02 13:44:24;;;;;;;;;;;25.30;88.40;;;;;;4957052;28;20355;-90
2022/09/02 13:46:51;;;;;;;;;;;25.60;87.40;;;;;;4954081;28;20418;-89
2022/09/02 13:49:18;;;;;;;;;;;25.60;88.00;;;;;;4970631;28;20433;-94
2022/09/02 13:51:44;;;;;;;;;;;25.50;87.00;;;;;;4953947;28;20037;-90
2022/09/02 13:54:09;;;;;;;;;;;25.50;87.00;;;;;;4958491;28;20322;-92
2022/09/02 13:56:35;;;;;;;;;;;25.70;87.60;;;;;;4970442;28;19932;-93
2022/09/02 13:59:01;;;;;;;;;;;25.60;88.00;;;;;;4955293;28;19936;-93
2022/09/02 14:01:30;;;;;;;;;;;25.80;88.90;;;;;;4940031;28;19948;-92
2022/09/02 14:03:59;;;;;;;;;;;25.90;87.30;;;;;;4954559;28;19926;-91
2022/09/02 14:06:32;;;;;;;;;;;25.70;88.60;;;;;;4956118;28;19930;-92
2022/09/02 14:08:59;;;;;;;;;;;25.60;87.40;;;;;;4955876;28;19933;-90
2022/09/02 14:11:25;;;;;;;;;;;25.50;87.50;;;;;;4970878;28;20036;-89
2022/09/02 14:13:51;;;;;;;;;;;25.20;87.50;;;;;;4940210;28;19934;-93
2022/09/02 14:16:43;;;;;;;;;;;26.50;88.90;;;;;;4964522;28;20017;-91
2022/09/02 14:19:31;;;;;;;;;;;25.50;88.20;;;;;;4951959;28;20018;-91
2022/09/02 14:21:57;;;;;;;;;;;25.50;87.30;;;;;;4970148;28;19969;-88
2022/09/02 14:24:29;;;;;;;;;;;25.50;88.60;;;;;;4953554;28;20027;-91
2022/09/02 14:26:55;;;;;;;;;;;25.60;86.30;;;;;;4954460;28;19945;-92